sensor_id;sensor_type;location;lat;lon;timestamp;P1;durP1;ratioP1;P2;durP2;ratioP2
61635;SDS011;59438;45.014;39.006;2022-10-30T00:01:00;24.77;;;9.98;;
61635;SDS011;59438;45.014;39.006;2022-10-30T00:03:27;23.95;;;9.68;;
61635;SDS011;59438;45.014;39.006;2022-10-30T00:05:54;20.35;;;8.80;;
61635;SDS011;59438;45.014;39.006;2022-10-30T00:08:21;19.92;;;9.30;;
61635;SDS011;59438;45.014;39.006;2022-10-30T00:10:48;24.35;;;10.02;;
61635;SDS011;59438;45.014;39.006;2022-10-30T00:13:16;22.77;;;9.88;;
61635;SDS011;59438;45.014;39.006;2022-10-30T00:15:45;17.77;;;9.73;;
61635;SDS011;59438;45.014;39.006;2022-10-30T00:18:12;19.63;;;9.00;;
61635;SDS011;59438;45.014;39.006;2022-10-30T00:20:39;18.90;;;9.18;;
61635;SDS011;59438;45.014;39.006;2022-10-30T00:23:05;19.95;;;9.40;;
61635;SDS011;59438;45.014;39.006;2022-10-30T00:25:33;19.17;;;8.65;;
61635;SDS011;59438;45.014;39.006;2022-10-30T00:28:00;20.23;;;8.80;;
61635;SDS011;59438;45.014;39.006;2022-10-30T00:30:27;19.95;;;8.88;;
61635;SDS011;59438;45.014;39.006;2022-10-30T00:32:54;21.80;;;8.98;;
61635;SDS011;59438;45.014;39.006;2022-10-30T00:35:20;17.50;;;8.98;;
61635;SDS011;59438;45.014;39.006;2022-10-30T00:37:47;19.40;;;8.27;;
61635;SDS011;59438;45.014;39.006;2022-10-30T00:40:13;19.55;;;8.13;;
61635;SDS011;59438;45.014;39.006;2022-10-30T00:42:40;12.95;;;7.45;;
61635;SDS011;59438;45.014;39.006;2022-10-30T00:45:08;17.08;;;8.13;;
61635;SDS011;59438;45.014;39.006;2022-10-30T00:47:39;20.10;;;8.55;;
61635;SDS011;59438;45.014;39.006;2022-10-30T00:50:10;21.38;;;8.02;;
61635;SDS011;59438;45.014;39.006;2022-10-30T00:52:43;16.48;;;7.60;;
61635;SDS011;59438;45.014;39.006;2022-10-30T00:55:14;17.98;;;8.40;;
61635;SDS011;59438;45.014;39.006;2022-10-30T00:57:44;14.83;;;7.60;;
61635;SDS011;59438;45.014;39.006;2022-10-30T01:00:12;19.95;;;7.88;;
61635;SDS011;59438;45.014;39.006;2022-10-30T01:02:41;13.95;;;7.88;;
61635;SDS011;59438;45.014;39.006;2022-10-30T01:05:09;12.18;;;7.20;;
61635;SDS011;59438;45.014;39.006;2022-10-30T01:07:40;12.73;;;7.47;;
61635;SDS011;59438;45.014;39.006;2022-10-30T01:10:06;18.20;;;7.45;;
61635;SDS011;59438;45.014;39.006;2022-10-30T01:12:34;20.70;;;7.20;;
61635;SDS011;59438;45.014;39.006;2022-10-30T01:15:01;16.75;;;7.95;;
61635;SDS011;59438;45.014;39.006;2022-10-30T01:20:31;18.30;;;7.18;;
61635;SDS011;59438;45.014;39.006;2022-10-30T01:23:12;16.20;;;7.47;;
61635;SDS011;59438;45.014;39.006;2022-10-30T01:25:52;16.30;;;7.18;;
61635;SDS011;59438;45.014;39.006;2022-10-30T01:28:32;14.13;;;7.30;;
61635;SDS011;59438;45.014;39.006;2022-10-30T01:31:13;16.05;;;7.03;;
61635;SDS011;59438;45.014;39.006;2022-10-30T01:33:53;19.13;;;7.55;;
61635;SDS011;59438;45.014;39.006;2022-10-30T01:36:31;19.30;;;7.47;;
61635;SDS011;59438;45.014;39.006;2022-10-30T01:39:02;19.23;;;6.95;;
61635;SDS011;59438;45.014;39.006;2022-10-30T01:41:32;14.27;;;7.38;;
61635;SDS011;59438;45.014;39.006;2022-10-30T01:43:59;22.42;;;7.45;;
61635;SDS011;59438;45.014;39.006;2022-10-30T01:49:10;22.00;;;6.88;;
61635;SDS011;59438;45.014;39.006;2022-10-30T01:51:56;13.73;;;6.18;;
61635;SDS011;59438;45.014;39.006;2022-10-30T01:54:31;15.57;;;6.40;;
61635;SDS011;59438;45.014;39.006;2022-10-30T01:57:06;14.40;;;6.18;;
61635;SDS011;59438;45.014;39.006;2022-10-30T01:59:37;14.25;;;6.40;;
61635;SDS011;59438;45.014;39.006;2022-10-30T02:02:08;11.27;;;5.82;;
61635;SDS011;59438;45.014;39.006;2022-10-30T02:04:35;11.38;;;5.60;;
61635;SDS011;59438;45.014;39.006;2022-10-30T02:07:04;11.77;;;6.35;;
61635;SDS011;59438;45.014;39.006;2022-10-30T02:09:31;9.48;;;5.68;;
61635;SDS011;59438;45.014;39.006;2022-10-30T02:11:57;12.30;;;6.13;;
61635;SDS011;59438;45.014;39.006;2022-10-30T02:14:25;10.40;;;5.22;;
61635;SDS011;59438;45.014;39.006;2022-10-30T02:16:55;13.32;;;5.78;;
61635;SDS011;59438;45.014;39.006;2022-10-30T02:19:25;16.83;;;5.18;;
61635;SDS011;59438;45.014;39.006;2022-10-30T02:21:53;9.02;;;5.05;;
61635;SDS011;59438;45.014;39.006;2022-10-30T02:24:19;7.68;;;4.40;;
61635;SDS011;59438;45.014;39.006;2022-10-30T02:26:45;8.82;;;4.70;;
61635;SDS011;59438;45.014;39.006;2022-10-30T02:29:12;12.15;;;4.93;;
61635;SDS011;59438;45.014;39.006;2022-10-30T02:31:39;8.15;;;4.70;;
61635;SDS011;59438;45.014;39.006;2022-10-30T02:34:05;8.73;;;5.03;;
61635;SDS011;59438;45.014;39.006;2022-10-30T02:36:32;9.48;;;4.63;;
61635;SDS011;59438;45.014;39.006;2022-10-30T02:39:00;9.77;;;4.68;;
61635;SDS011;59438;45.014;39.006;2022-10-30T02:41:26;9.52;;;4.72;;
61635;SDS011;59438;45.014;39.006;2022-10-30T02:43:52;10.23;;;4.60;;
61635;SDS011;59438;45.014;39.006;2022-10-30T02:46:19;8.95;;;4.55;;
61635;SDS011;59438;45.014;39.006;2022-10-30T02:48:46;7.82;;;4.47;;
61635;SDS011;59438;45.014;39.006;2022-10-30T02:51:12;8.75;;;4.35;;
61635;SDS011;59438;45.014;39.006;2022-10-30T02:53:39;8.13;;;3.90;;
61635;SDS011;59438;45.014;39.006;2022-10-30T02:56:07;9.98;;;4.47;;
61635;SDS011;59438;45.014;39.006;2022-10-30T02:58:35;7.20;;;4.20;;
61635;SDS011;59438;45.014;39.006;2022-10-30T03:01:05;11.50;;;4.68;;
61635;SDS011;59438;45.014;39.006;2022-10-30T03:05:59;5.85;;;3.80;;
61635;SDS011;59438;45.014;39.006;2022-10-30T03:08:26;7.75;;;4.07;;
61635;SDS011;59438;45.014;39.006;2022-10-30T03:10:57;7.03;;;4.00;;
61635;SDS011;59438;45.014;39.006;2022-10-30T03:13:25;6.65;;;3.72;;
61635;SDS011;59438;45.014;39.006;2022-10-30T03:15:53;8.88;;;4.40;;
61635;SDS011;59438;45.014;39.006;2022-10-30T03:18:24;6.95;;;3.70;;
61635;SDS011;59438;45.014;39.006;2022-10-30T03:20:54;5.28;;;3.67;;
61635;SDS011;59438;45.014;39.006;2022-10-30T03:23:21;5.70;;;3.72;;
61635;SDS011;59438;45.014;39.006;2022-10-30T03:25:50;8.77;;;3.83;;
61635;SDS011;59438;45.014;39.006;2022-10-30T03:28:17;4.68;;;3.45;;
61635;SDS011;59438;45.014;39.006;2022-10-30T03:30:45;6.13;;;3.28;;
61635;SDS011;59438;45.014;39.006;2022-10-30T03:33:11;3.72;;;3.10;;
61635;SDS011;59438;45.014;39.006;2022-10-30T03:35:38;7.72;;;3.40;;
61635;SDS011;59438;45.014;39.006;2022-10-30T03:38:04;8.55;;;3.55;;
61635;SDS011;59438;45.014;39.006;2022-10-30T03:40:30;5.70;;;3.60;;
61635;SDS011;59438;45.014;39.006;2022-10-30T03:42:57;7.75;;;3.67;;
61635;SDS011;59438;45.014;39.006;2022-10-30T03:45:23;9.65;;;3.58;;
61635;SDS011;59438;45.014;39.006;2022-10-30T03:47:51;6.55;;;3.17;;
61635;SDS011;59438;45.014;39.006;2022-10-30T03:50:17;22.27;;;3.58;;
61635;SDS011;59438;45.014;39.006;2022-10-30T03:52:44;4.60;;;3.40;;
61635;SDS011;59438;45.014;39.006;2022-10-30T03:55:10;26.90;;;4.80;;
61635;SDS011;59438;45.014;39.006;2022-10-30T03:57:36;11.75;;;3.35;;
61635;SDS011;59438;45.014;39.006;2022-10-30T04:00:03;5.65;;;3.22;;
61635;SDS011;59438;45.014;39.006;2022-10-30T04:02:31;10.20;;;3.42;;
61635;SDS011;59438;45.014;39.006;2022-10-30T04:04:59;16.70;;;3.70;;
61635;SDS011;59438;45.014;39.006;2022-10-30T04:07:25;8.55;;;3.47;;
61635;SDS011;59438;45.014;39.006;2022-10-30T04:09:51;11.45;;;3.65;;
61635;SDS011;59438;45.014;39.006;2022-10-30T04:12:18;10.10;;;3.30;;
61635;SDS011;59438;45.014;39.006;2022-10-30T04:14:44;4.50;;;3.08;;
61635;SDS011;59438;45.014;39.006;2022-10-30T04:17:10;9.20;;;3.50;;
61635;SDS011;59438;45.014;39.006;2022-10-30T04:19:37;5.03;;;3.45;;
61635;SDS011;59438;45.014;39.006;2022-10-30T04:22:05;7.55;;;3.58;;
61635;SDS011;59438;45.014;39.006;2022-10-30T04:24:31;9.73;;;3.47;;
61635;SDS011;59438;45.014;39.006;2022-10-30T04:26:57;9.77;;;3.40;;
61635;SDS011;59438;45.014;39.006;2022-10-30T04:29:24;5.05;;;3.33;;
61635;SDS011;59438;45.014;39.006;2022-10-30T04:31:50;5.03;;;2.88;;
61635;SDS011;59438;45.014;39.006;2022-10-30T04:34:16;6.68;;;3.20;;
61635;SDS011;59438;45.014;39.006;2022-10-30T04:36:43;4.38;;;3.03;;
61635;SDS011;59438;45.014;39.006;2022-10-30T04:39:11;4.88;;;3.33;;
61635;SDS011;59438;45.014;39.006;2022-10-30T04:41:37;5.20;;;3.42;;
61635;SDS011;59438;45.014;39.006;2022-10-30T04:44:04;6.00;;;3.35;;
61635;SDS011;59438;45.014;39.006;2022-10-30T04:46:30;5.25;;;3.60;;
61635;SDS011;59438;45.014;39.006;2022-10-30T04:48:57;5.78;;;3.65;;
61635;SDS011;59438;45.014;39.006;2022-10-30T04:51:23;7.38;;;3.53;;
61635;SDS011;59438;45.014;39.006;2022-10-30T04:53:50;7.07;;;3.88;;
61635;SDS011;59438;45.014;39.006;2022-10-30T04:56:17;4.55;;;3.30;;
61635;SDS011;59438;45.014;39.006;2022-10-30T04:58:45;4.40;;;3.20;;
61635;SDS011;59438;45.014;39.006;2022-10-30T05:01:12;5.57;;;3.95;;
61635;SDS011;59438;45.014;39.006;2022-10-30T05:03:38;6.82;;;3.28;;
61635;SDS011;59438;45.014;39.006;2022-10-30T05:06:05;9.93;;;3.42;;
61635;SDS011;59438;45.014;39.006;2022-10-30T05:08:37;5.95;;;3.65;;
61635;SDS011;59438;45.014;39.006;2022-10-30T05:11:04;10.50;;;3.85;;
61635;SDS011;59438;45.014;39.006;2022-10-30T05:13:32;7.88;;;3.45;;
61635;SDS011;59438;45.014;39.006;2022-10-30T05:15:58;5.35;;;3.50;;
61635;SDS011;59438;45.014;39.006;2022-10-30T05:18:25;8.48;;;3.97;;
61635;SDS011;59438;45.014;39.006;2022-10-30T05:20:51;6.70;;;3.70;;
61635;SDS011;59438;45.014;39.006;2022-10-30T05:23:17;5.80;;;3.92;;
61635;SDS011;59438;45.014;39.006;2022-10-30T05:25:44;6.93;;;4.20;;
61635;SDS011;59438;45.014;39.006;2022-10-30T05:28:10;8.57;;;4.10;;
61635;SDS011;59438;45.014;39.006;2022-10-30T05:30:38;7.90;;;4.32;;
61635;SDS011;59438;45.014;39.006;2022-10-30T05:33:05;7.85;;;3.67;;
61635;SDS011;59438;45.014;39.006;2022-10-30T05:35:32;6.85;;;4.25;;
61635;SDS011;59438;45.014;39.006;2022-10-30T05:38:00;8.95;;;4.15;;
61635;SDS011;59438;45.014;39.006;2022-10-30T05:40:28;7.60;;;4.40;;
61635;SDS011;59438;45.014;39.006;2022-10-30T05:42:55;7.57;;;4.03;;
61635;SDS011;59438;45.014;39.006;2022-10-30T05:45:21;7.25;;;3.85;;
61635;SDS011;59438;45.014;39.006;2022-10-30T05:47:54;6.47;;;4.30;;
61635;SDS011;59438;45.014;39.006;2022-10-30T05:50:21;8.95;;;4.07;;
61635;SDS011;59438;45.014;39.006;2022-10-30T05:52:47;6.72;;;3.97;;
61635;SDS011;59438;45.014;39.006;2022-10-30T05:55:14;6.43;;;4.00;;
61635;SDS011;59438;45.014;39.006;2022-10-30T05:57:41;6.50;;;3.75;;
61635;SDS011;59438;45.014;39.006;2022-10-30T06:00:07;4.88;;;3.50;;
61635;SDS011;59438;45.014;39.006;2022-10-30T06:02:34;5.68;;;3.58;;
61635;SDS011;59438;45.014;39.006;2022-10-30T06:05:03;6.93;;;3.90;;
61635;SDS011;59438;45.014;39.006;2022-10-30T06:07:29;6.43;;;4.22;;
61635;SDS011;59438;45.014;39.006;2022-10-30T06:09:56;8.13;;;4.07;;
61635;SDS011;59438;45.014;39.006;2022-10-30T06:12:22;12.00;;;4.35;;
61635;SDS011;59438;45.014;39.006;2022-10-30T06:14:49;7.00;;;4.05;;
61635;SDS011;59438;45.014;39.006;2022-10-30T06:17:15;6.28;;;3.90;;
61635;SDS011;59438;45.014;39.006;2022-10-30T06:19:41;4.85;;;3.50;;
61635;SDS011;59438;45.014;39.006;2022-10-30T06:22:09;7.35;;;3.90;;
61635;SDS011;59438;45.014;39.006;2022-10-30T06:24:36;9.18;;;3.55;;
61635;SDS011;59438;45.014;39.006;2022-10-30T06:27:02;6.57;;;4.10;;
61635;SDS011;59438;45.014;39.006;2022-10-30T06:29:28;9.85;;;3.70;;
61635;SDS011;59438;45.014;39.006;2022-10-30T06:31:55;7.38;;;3.70;;
61635;SDS011;59438;45.014;39.006;2022-10-30T06:34:21;7.18;;;3.78;;
61635;SDS011;59438;45.014;39.006;2022-10-30T06:36:48;7.78;;;3.60;;
61635;SDS011;59438;45.014;39.006;2022-10-30T06:39:15;5.10;;;3.63;;
61635;SDS011;59438;45.014;39.006;2022-10-30T06:41:42;6.32;;;3.45;;
61635;SDS011;59438;45.014;39.006;2022-10-30T06:44:08;5.75;;;3.17;;
61635;SDS011;59438;45.014;39.006;2022-10-30T06:46:35;6.80;;;2.85;;
61635;SDS011;59438;45.014;39.006;2022-10-30T06:49:01;6.03;;;2.50;;
61635;SDS011;59438;45.014;39.006;2022-10-30T06:51:27;5.88;;;2.25;;
61635;SDS011;59438;45.014;39.006;2022-10-30T06:53:54;3.40;;;2.28;;
61635;SDS011;59438;45.014;39.006;2022-10-30T06:56:22;5.35;;;1.90;;
61635;SDS011;59438;45.014;39.006;2022-10-30T06:58:48;3.33;;;2.00;;
61635;SDS011;59438;45.014;39.006;2022-10-30T07:01:14;3.83;;;2.00;;
61635;SDS011;59438;45.014;39.006;2022-10-30T07:03:41;5.47;;;2.03;;
61635;SDS011;59438;45.014;39.006;2022-10-30T07:06:07;3.58;;;2.35;;
61635;SDS011;59438;45.014;39.006;2022-10-30T07:08:33;3.65;;;2.30;;
61635;SDS011;59438;45.014;39.006;2022-10-30T07:11:00;5.32;;;2.00;;
61635;SDS011;59438;45.014;39.006;2022-10-30T07:13:28;4.35;;;2.10;;
61635;SDS011;59438;45.014;39.006;2022-10-30T07:15:54;4.68;;;2.00;;
61635;SDS011;59438;45.014;39.006;2022-10-30T07:18:20;2.10;;;1.90;;
61635;SDS011;59438;45.014;39.006;2022-10-30T07:20:47;4.72;;;1.88;;
61635;SDS011;59438;45.014;39.006;2022-10-30T07:23:18;8.60;;;2.20;;
61635;SDS011;59438;45.014;39.006;2022-10-30T07:25:45;4.80;;;2.10;;
61635;SDS011;59438;45.014;39.006;2022-10-30T07:28:11;6.43;;;1.63;;
61635;SDS011;59438;45.014;39.006;2022-10-30T07:30:39;1.73;;;1.23;;
61635;SDS011;59438;45.014;39.006;2022-10-30T07:33:05;5.30;;;1.40;;
61635;SDS011;59438;45.014;39.006;2022-10-30T07:35:34;9.20;;;1.58;;
61635;SDS011;59438;45.014;39.006;2022-10-30T07:38:01;5.07;;;1.50;;
61635;SDS011;59438;45.014;39.006;2022-10-30T07:40:28;19.50;;;2.03;;
61635;SDS011;59438;45.014;39.006;2022-10-30T07:42:55;1.95;;;1.30;;
61635;SDS011;59438;45.014;39.006;2022-10-30T07:45:22;2.63;;;1.30;;
61635;SDS011;59438;45.014;39.006;2022-10-30T07:47:50;2.25;;;1.25;;
61635;SDS011;59438;45.014;39.006;2022-10-30T07:50:17;6.45;;;1.40;;
61635;SDS011;59438;45.014;39.006;2022-10-30T07:52:43;19.63;;;1.67;;
61635;SDS011;59438;45.014;39.006;2022-10-30T07:55:10;4.15;;;1.27;;
61635;SDS011;59438;45.014;39.006;2022-10-30T07:57:37;3.63;;;1.48;;
61635;SDS011;59438;45.014;39.006;2022-10-30T08:00:06;4.22;;;1.40;;
61635;SDS011;59438;45.014;39.006;2022-10-30T08:02:34;3.03;;;1.20;;
61635;SDS011;59438;45.014;39.006;2022-10-30T08:05:02;2.65;;;1.33;;
61635;SDS011;59438;45.014;39.006;2022-10-30T08:07:29;1.30;;;1.20;;
61635;SDS011;59438;45.014;39.006;2022-10-30T08:09:56;5.32;;;1.20;;
61635;SDS011;59438;45.014;39.006;2022-10-30T08:12:23;1.17;;;1.05;;
61635;SDS011;59438;45.014;39.006;2022-10-30T08:14:49;2.83;;;1.38;;
61635;SDS011;59438;45.014;39.006;2022-10-30T08:17:16;2.00;;;1.67;;
61635;SDS011;59438;45.014;39.006;2022-10-30T08:19:42;3.13;;;1.20;;
61635;SDS011;59438;45.014;39.006;2022-10-30T08:22:11;1.38;;;1.10;;
61635;SDS011;59438;45.014;39.006;2022-10-30T08:24:38;5.53;;;1.13;;
61635;SDS011;59438;45.014;39.006;2022-10-30T08:27:04;4.50;;;0.98;;
61635;SDS011;59438;45.014;39.006;2022-10-30T08:29:30;1.33;;;1.10;;
61635;SDS011;59438;45.014;39.006;2022-10-30T08:31:57;4.53;;;1.20;;
61635;SDS011;59438;45.014;39.006;2022-10-30T08:34:23;6.25;;;1.20;;
61635;SDS011;59438;45.014;39.006;2022-10-30T08:36:50;22.20;;;1.63;;
61635;SDS011;59438;45.014;39.006;2022-10-30T08:39:18;4.72;;;1.30;;
61635;SDS011;59438;45.014;39.006;2022-10-30T08:41:45;6.13;;;1.10;;
61635;SDS011;59438;45.014;39.006;2022-10-30T08:44:11;1.60;;;0.90;;
61635;SDS011;59438;45.014;39.006;2022-10-30T08:46:38;1.75;;;1.00;;
61635;SDS011;59438;45.014;39.006;2022-10-30T08:49:04;1.02;;;0.93;;
61635;SDS011;59438;45.014;39.006;2022-10-30T08:51:31;6.63;;;1.30;;
61635;SDS011;59438;45.014;39.006;2022-10-30T08:53:57;1.77;;;1.10;;
61635;SDS011;59438;45.014;39.006;2022-10-30T08:56:25;3.35;;;1.20;;
61635;SDS011;59438;45.014;39.006;2022-10-30T08:58:52;2.47;;;1.17;;
61635;SDS011;59438;45.014;39.006;2022-10-30T09:01:18;3.40;;;1.10;;
61635;SDS011;59438;45.014;39.006;2022-10-30T09:03:45;4.72;;;1.30;;
61635;SDS011;59438;45.014;39.006;2022-10-30T09:06:11;2.03;;;1.15;;
61635;SDS011;59438;45.014;39.006;2022-10-30T09:08:38;1.45;;;1.08;;
61635;SDS011;59438;45.014;39.006;2022-10-30T09:11:04;3.90;;;1.20;;
61635;SDS011;59438;45.014;39.006;2022-10-30T09:13:32;5.68;;;1.00;;
61635;SDS011;59438;45.014;39.006;2022-10-30T09:15:59;3.20;;;1.20;;
61635;SDS011;59438;45.014;39.006;2022-10-30T09:18:26;8.32;;;1.52;;
61635;SDS011;59438;45.014;39.006;2022-10-30T09:20:52;3.42;;;1.60;;
61635;SDS011;59438;45.014;39.006;2022-10-30T09:23:19;4.18;;;1.77;;
61635;SDS011;59438;45.014;39.006;2022-10-30T09:25:46;1.30;;;1.08;;
61635;SDS011;59438;45.014;39.006;2022-10-30T09:28:12;3.38;;;1.00;;
61635;SDS011;59438;45.014;39.006;2022-10-30T09:30:40;2.03;;;1.15;;
61635;SDS011;59438;45.014;39.006;2022-10-30T09:33:07;3.72;;;1.15;;
61635;SDS011;59438;45.014;39.006;2022-10-30T09:35:34;3.83;;;1.20;;
61635;SDS011;59438;45.014;39.006;2022-10-30T09:38:00;2.13;;;1.10;;
61635;SDS011;59438;45.014;39.006;2022-10-30T09:40:30;1.48;;;1.00;;
61635;SDS011;59438;45.014;39.006;2022-10-30T09:43:07;1.63;;;1.30;;
61635;SDS011;59438;45.014;39.006;2022-10-30T09:46:01;2.63;;;1.40;;
61635;SDS011;59438;45.014;39.006;2022-10-30T09:51:50;3.17;;;2.42;;
61635;SDS011;59438;45.014;39.006;2022-10-30T09:54:37;3.55;;;1.58;;
61635;SDS011;59438;45.014;39.006;2022-10-30T09:57:15;5.50;;;1.35;;
61635;SDS011;59438;45.014;39.006;2022-10-30T09:59:53;15.60;;;5.90;;
61635;SDS011;59438;45.014;39.006;2022-10-30T10:02:31;5.47;;;2.88;;
61635;SDS011;59438;45.014;39.006;2022-10-30T10:05:02;8.23;;;4.10;;
61635;SDS011;59438;45.014;39.006;2022-10-30T10:07:36;4.80;;;2.35;;
61635;SDS011;59438;45.014;39.006;2022-10-30T10:10:10;5.07;;;2.00;;
61635;SDS011;59438;45.014;39.006;2022-10-30T10:12:42;5.00;;;2.17;;
61635;SDS011;59438;45.014;39.006;2022-10-30T10:15:13;5.50;;;1.97;;
61635;SDS011;59438;45.014;39.006;2022-10-30T10:17:47;2.67;;;1.50;;
61635;SDS011;59438;45.014;39.006;2022-10-30T10:20:15;25.90;;;2.40;;
61635;SDS011;59438;45.014;39.006;2022-10-30T10:22:51;6.63;;;1.27;;
61635;SDS011;59438;45.014;39.006;2022-10-30T10:25:18;1.88;;;1.25;;
61635;SDS011;59438;45.014;39.006;2022-10-30T10:27:49;2.40;;;1.30;;
61635;SDS011;59438;45.014;39.006;2022-10-30T10:30:21;22.42;;;1.95;;
61635;SDS011;59438;45.014;39.006;2022-10-30T10:33:09;5.55;;;1.23;;
61635;SDS011;59438;45.014;39.006;2022-10-30T10:35:56;3.95;;;1.10;;
61635;SDS011;59438;45.014;39.006;2022-10-30T10:38:38;2.60;;;1.42;;
61635;SDS011;59438;45.014;39.006;2022-10-30T10:43:55;6.28;;;1.20;;
61635;SDS011;59438;45.014;39.006;2022-10-30T10:46:34;14.90;;;1.70;;
61635;SDS011;59438;45.014;39.006;2022-10-30T10:49:15;1.52;;;1.08;;
61635;SDS011;59438;45.014;39.006;2022-10-30T10:51:53;5.90;;;1.00;;
61635;SDS011;59438;45.014;39.006;2022-10-30T10:54:25;3.90;;;1.30;;
61635;SDS011;59438;45.014;39.006;2022-10-30T10:59:22;2.33;;;1.20;;
61635;SDS011;59438;45.014;39.006;2022-10-30T11:01:57;9.88;;;1.60;;
61635;SDS011;59438;45.014;39.006;2022-10-30T11:04:30;3.67;;;1.83;;
61635;SDS011;59438;45.014;39.006;2022-10-30T11:07:02;11.07;;;1.67;;
61635;SDS011;59438;45.014;39.006;2022-10-30T11:09:42;4.38;;;1.60;;
61635;SDS011;59438;45.014;39.006;2022-10-30T11:12:09;2.13;;;1.20;;
61635;SDS011;59438;45.014;39.006;2022-10-30T11:14:36;1.85;;;1.35;;
61635;SDS011;59438;45.014;39.006;2022-10-30T11:17:04;4.18;;;1.70;;
61635;SDS011;59438;45.014;39.006;2022-10-30T11:19:44;2.83;;;1.88;;
61635;SDS011;59438;45.014;39.006;2022-10-30T11:22:19;1.88;;;1.50;;
61635;SDS011;59438;45.014;39.006;2022-10-30T11:24:48;3.20;;;1.80;;
61635;SDS011;59438;45.014;39.006;2022-10-30T11:27:16;3.58;;;1.80;;
61635;SDS011;59438;45.014;39.006;2022-10-30T11:29:50;2.72;;;1.77;;
61635;SDS011;59438;45.014;39.006;2022-10-30T11:32:19;3.95;;;1.30;;
61635;SDS011;59438;45.014;39.006;2022-10-30T11:34:49;2.28;;;1.40;;
61635;SDS011;59438;45.014;39.006;2022-10-30T11:37:29;2.75;;;1.38;;
61635;SDS011;59438;45.014;39.006;2022-10-30T11:40:00;1.48;;;1.10;;
61635;SDS011;59438;45.014;39.006;2022-10-30T11:42:29;3.65;;;1.63;;
61635;SDS011;59438;45.014;39.006;2022-10-30T11:44:55;6.25;;;2.30;;
61635;SDS011;59438;45.014;39.006;2022-10-30T11:47:24;2.67;;;1.52;;
61635;SDS011;59438;45.014;39.006;2022-10-30T11:49:58;4.85;;;1.67;;
61635;SDS011;59438;45.014;39.006;2022-10-30T11:52:27;3.08;;;1.55;;
61635;SDS011;59438;45.014;39.006;2022-10-30T11:54:55;6.18;;;3.70;;
61635;SDS011;59438;45.014;39.006;2022-10-30T11:57:27;10.98;;;4.57;;
61635;SDS011;59438;45.014;39.006;2022-10-30T11:59:58;4.30;;;1.90;;
61635;SDS011;59438;45.014;39.006;2022-10-30T12:02:25;3.20;;;1.63;;
61635;SDS011;59438;45.014;39.006;2022-10-30T12:04:55;31.02;;;2.30;;
61635;SDS011;59438;45.014;39.006;2022-10-30T12:07:29;30.20;;;3.55;;
61635;SDS011;59438;45.014;39.006;2022-10-30T12:09:56;28.35;;;4.65;;
61635;SDS011;59438;45.014;39.006;2022-10-30T12:12:25;8.45;;;4.00;;
61635;SDS011;59438;45.014;39.006;2022-10-30T12:14:53;5.22;;;2.20;;
61635;SDS011;59438;45.014;39.006;2022-10-30T12:17:20;4.40;;;2.60;;
61635;SDS011;59438;45.014;39.006;2022-10-30T12:19:47;4.88;;;3.03;;
61635;SDS011;59438;45.014;39.006;2022-10-30T12:22:28;7.72;;;3.83;;
61635;SDS011;59438;45.014;39.006;2022-10-30T12:24:57;8.68;;;5.38;;
61635;SDS011;59438;45.014;39.006;2022-10-30T12:27:24;10.55;;;5.43;;
61635;SDS011;59438;45.014;39.006;2022-10-30T12:30:02;5.97;;;3.85;;
61635;SDS011;59438;45.014;39.006;2022-10-30T12:32:33;6.15;;;3.30;;
61635;SDS011;59438;45.014;39.006;2022-10-30T12:35:08;15.90;;;3.15;;
61635;SDS011;59438;45.014;39.006;2022-10-30T12:37:45;6.57;;;2.60;;
61635;SDS011;59438;45.014;39.006;2022-10-30T12:40:18;4.20;;;2.70;;
61635;SDS011;59438;45.014;39.006;2022-10-30T12:42:50;7.03;;;3.13;;
61635;SDS011;59438;45.014;39.006;2022-10-30T12:45:23;16.50;;;4.65;;
61635;SDS011;59438;45.014;39.006;2022-10-30T12:47:57;16.42;;;4.93;;
61635;SDS011;59438;45.014;39.006;2022-10-30T12:50:28;7.07;;;3.97;;
61635;SDS011;59438;45.014;39.006;2022-10-30T12:53:04;5.25;;;3.40;;
61635;SDS011;59438;45.014;39.006;2022-10-30T12:55:40;5.90;;;3.53;;
61635;SDS011;59438;45.014;39.006;2022-10-30T12:58:13;8.18;;;3.60;;
61635;SDS011;59438;45.014;39.006;2022-10-30T13:00:50;17.88;;;5.20;;
61635;SDS011;59438;45.014;39.006;2022-10-30T13:03:25;10.40;;;6.22;;
61635;SDS011;59438;45.014;39.006;2022-10-30T13:05:56;13.65;;;5.65;;
61635;SDS011;59438;45.014;39.006;2022-10-30T13:08:29;11.95;;;5.95;;
61635;SDS011;59438;45.014;39.006;2022-10-30T13:11:01;11.13;;;4.90;;
61635;SDS011;59438;45.014;39.006;2022-10-30T13:13:33;7.10;;;3.00;;
61635;SDS011;59438;45.014;39.006;2022-10-30T13:16:02;6.38;;;3.00;;
61635;SDS011;59438;45.014;39.006;2022-10-30T13:18:32;6.20;;;2.83;;
61635;SDS011;59438;45.014;39.006;2022-10-30T13:21:13;9.38;;;3.20;;
61635;SDS011;59438;45.014;39.006;2022-10-30T13:23:47;5.25;;;2.40;;
61635;SDS011;59438;45.014;39.006;2022-10-30T13:26:22;11.05;;;3.30;;
61635;SDS011;59438;45.014;39.006;2022-10-30T13:28:58;7.63;;;2.63;;
61635;SDS011;59438;45.014;39.006;2022-10-30T13:31:32;5.22;;;3.08;;
61635;SDS011;59438;45.014;39.006;2022-10-30T13:34:10;4.78;;;2.80;;
61635;SDS011;59438;45.014;39.006;2022-10-30T13:36:52;8.35;;;3.30;;
61635;SDS011;59438;45.014;39.006;2022-10-30T13:39:26;14.93;;;5.22;;
61635;SDS011;59438;45.014;39.006;2022-10-30T13:42:00;23.27;;;8.75;;
61635;SDS011;59438;45.014;39.006;2022-10-30T13:44:41;21.00;;;8.48;;
61635;SDS011;59438;45.014;39.006;2022-10-30T13:47:20;23.35;;;10.18;;
61635;SDS011;59438;45.014;39.006;2022-10-30T13:49:57;18.27;;;8.93;;
61635;SDS011;59438;45.014;39.006;2022-10-30T13:52:42;20.48;;;8.65;;
61635;SDS011;59438;45.014;39.006;2022-10-30T13:55:16;18.42;;;8.35;;
61635;SDS011;59438;45.014;39.006;2022-10-30T13:57:49;15.60;;;7.55;;
61635;SDS011;59438;45.014;39.006;2022-10-30T14:00:22;15.15;;;7.13;;
61635;SDS011;59438;45.014;39.006;2022-10-30T14:03:07;12.82;;;6.82;;
61635;SDS011;59438;45.014;39.006;2022-10-30T14:05:43;12.25;;;6.00;;
61635;SDS011;59438;45.014;39.006;2022-10-30T14:08:16;10.35;;;4.57;;
61635;SDS011;59438;45.014;39.006;2022-10-30T14:10:55;10.07;;;5.55;;
61635;SDS011;59438;45.014;39.006;2022-10-30T14:13:23;8.73;;;5.27;;
61635;SDS011;59438;45.014;39.006;2022-10-30T14:15:54;8.18;;;4.50;;
61635;SDS011;59438;45.014;39.006;2022-10-30T14:18:29;8.15;;;4.25;;
61635;SDS011;59438;45.014;39.006;2022-10-30T14:20:57;12.10;;;4.10;;
61635;SDS011;59438;45.014;39.006;2022-10-30T14:23:44;6.38;;;3.95;;
61635;SDS011;59438;45.014;39.006;2022-10-30T14:26:13;10.80;;;4.78;;
61635;SDS011;59438;45.014;39.006;2022-10-30T14:28:46;8.02;;;4.20;;
61635;SDS011;59438;45.014;39.006;2022-10-30T14:31:15;6.65;;;3.80;;
61635;SDS011;59438;45.014;39.006;2022-10-30T14:33:44;7.15;;;4.05;;
61635;SDS011;59438;45.014;39.006;2022-10-30T14:36:12;10.70;;;4.20;;
61635;SDS011;59438;45.014;39.006;2022-10-30T14:38:40;7.85;;;4.15;;
61635;SDS011;59438;45.014;39.006;2022-10-30T14:41:20;9.70;;;4.78;;
61635;SDS011;59438;45.014;39.006;2022-10-30T14:43:58;9.65;;;4.70;;
61635;SDS011;59438;45.014;39.006;2022-10-30T14:46:41;13.68;;;5.18;;
61635;SDS011;59438;45.014;39.006;2022-10-30T14:49:26;12.95;;;5.75;;
61635;SDS011;59438;45.014;39.006;2022-10-30T14:52:10;11.93;;;5.83;;
61635;SDS011;59438;45.014;39.006;2022-10-30T14:54:55;11.40;;;5.60;;
61635;SDS011;59438;45.014;39.006;2022-10-30T14:57:46;18.38;;;6.55;;
61635;SDS011;59438;45.014;39.006;2022-10-30T15:03:04;16.67;;;5.43;;
61635;SDS011;59438;45.014;39.006;2022-10-30T15:05:39;12.25;;;6.07;;